Time;durP1;ratioP1;P1;durP2;ratioP2;P2;SDS_P1;SDS_P2;PMS_P1;PMS_P2;Temp;Humidity;BMP_temperature;BMP_pressure;BME280_temperature;BME280_humidity;BME280_pressure;Samples;Min_cycle;Max_cycle;Signal;HPM_P1;HPM_P2
2022/05/24 00:01:01;;;;;;;3.30;1.35;;;;;;;11.34;60.13;99498.19;5065431;28;20025;-76
2022/05/24 00:03:27;;;;;;;1.50;1.40;;;;;;;11.36;59.94;99491.22;5083200;28;20047;-76
2022/05/24 00:05:52;;;;;;;2.63;1.23;;;;;;;11.33;60.26;99493.91;5083170;28;20027;-78
2022/05/24 00:08:17;;;;;;;4.95;1.70;;;;;;;11.37;59.95;99479.94;5065232;28;20039;-78
2022/05/24 00:10:43;;;;;;;2.00;1.40;;;;;;;11.22;60.21;99503.72;5083247;28;20016;-75
2022/05/24 00:13:11;;;;;;;5.10;1.60;;;;;;;11.29;59.94;99497.50;5082933;28;20024;-75
2022/05/24 00:15:37;;;;;;;3.60;1.40;;;;;;;11.30;59.82;99477.53;5064735;28;20142;-75
2022/05/24 00:18:09;;;;;;;1.15;1.00;;;;;;;11.32;59.11;99471.44;5082959;28;20024;-76
2022/05/24 00:20:41;;;;;;;2.00;1.40;;;;;;;11.26;59.03;99480.22;5083000;28;20087;-77
2022/05/24 00:23:08;;;;;;;1.75;1.10;;;;;;;11.39;58.22;99472.97;5083096;28;20021;-76
2022/05/24 00:25:37;;;;;;;3.38;1.60;;;;;;;11.19;58.63;99464.84;5065050;28;20412;-76
2022/05/24 00:28:05;;;;;;;2.35;1.45;;;;;;;11.28;58.48;99467.19;5082570;28;20123;-74
2022/05/24 00:30:30;;;;;;;1.63;1.25;;;;;;;11.18;58.67;99465.75;5082857;28;20021;-77
2022/05/24 00:32:56;;;;;;;2.78;1.70;;;;;;;11.28;58.30;99468.06;5083050;28;20060;-76
2022/05/24 00:35:21;;;;;;;3.90;1.73;;;;;;;11.03;58.69;99453.13;5082951;28;20031;-77
2022/05/24 00:37:48;;;;;;;2.80;1.40;;;;;;;11.29;57.97;99458.53;5082616;28;20050;-75
2022/05/24 00:40:26;;;;;;;3.67;1.35;;;;;;;11.08;58.61;99440.00;5082793;28;20043;-77
2022/05/24 00:42:52;;;;;;;2.72;1.10;;;;;;;11.37;57.15;99450.50;5086477;28;20024;-77
2022/05/24 00:45:39;;;;;;;3.03;1.80;;;;;;;11.19;57.85;99446.66;5086811;28;20034;-77
2022/05/24 00:48:15;;;;;;;2.67;1.52;;;;;;;11.10;57.90;99427.81;5086821;28;20059;-78
2022/05/24 00:50:47;;;;;;;4.43;1.40;;;;;;;11.25;57.14;99434.34;5086455;28;20025;-77
2022/05/24 00:53:37;;;;;;;2.85;1.27;;;;;;;11.00;58.01;99441.94;5087246;28;20095;-77
2022/05/24 00:56:09;;;;;;;2.30;1.42;;;;;;;10.90;58.01;99426.59;5086398;28;20030;-76
2022/05/24 00:58:51;;;;;;;2.85;1.50;;;;;;;11.00;57.07;99418.56;5086605;28;20025;-76
2022/05/24 01:01:46;;;;;;;2.65;1.40;;;;;;;10.94;57.41;99426.53;5086513;28;20031;-76
2022/05/24 01:04:14;;;;;;;2.92;1.67;;;;;;;11.08;56.71;99434.81;5086644;28;20024;-74
2022/05/24 01:06:39;;;;;;;1.63;1.30;;;;;;;11.00;56.40;99416.84;5086036;28;20024;-75
2022/05/24 01:09:12;;;;;;;3.92;1.45;;;;;;;11.02;55.87;99425.41;5085865;28;20245;-76
2022/05/24 01:11:42;;;;;;;3.13;1.48;;;;;;;10.97;55.97;99410.88;5085448;28;20036;-75
2022/05/24 01:14:09;;;;;;;3.08;1.80;;;;;;;10.88;55.70;99397.22;5085885;28;20017;-76
2022/05/24 01:16:35;;;;;;;1.98;1.00;;;;;;;10.95;55.33;99413.50;5085544;28;20032;-76
2022/05/24 01:19:04;;;;;;;5.47;1.80;;;;;;;10.85;55.40;99402.50;5067660;28;20032;-78
2022/05/24 01:21:31;;;;;;;1.52;1.05;;;;;;;11.10;54.61;99412.22;5067631;28;20021;-77
2022/05/24 01:24:24;;;;;;;1.90;1.23;;;;;;;10.99;54.90;99404.72;5085627;28;20054;-76
2022/05/24 01:26:51;;;;;;;2.92;1.55;;;;;;;10.84;55.27;99407.72;5075064;28;20029;-75
2022/05/24 01:29:20;;;;;;;1.33;0.93;;;;;;;10.89;54.54;99385.09;5085406;28;20051;-76
2022/05/24 01:37:17;;;;;;;1.42;1.13;;;;;;;10.96;53.65;99388.41;5085491;28;20031;-75
2022/05/24 01:39:45;;;;;;;1.85;1.20;;;;;;;10.87;53.81;99369.56;5085219;28;20020;-75
2022/05/24 01:42:11;;;;;;;2.83;1.63;;;;;;;10.75;54.08;99375.06;5084993;28;20055;-75
2022/05/24 01:45:17;;;;;;;3.42;1.50;;;;;;;10.88;53.53;99373.84;5085365;28;20062;-77
2022/05/24 01:47:46;;;;;;;4.38;1.40;;;;;;;10.77;53.89;99370.69;4986712;28;20166;-77
2022/05/24 01:50:20;;;;;;;3.95;1.55;;;;;;;10.77;53.74;99363.75;5002975;28;20038;-74
2022/05/24 01:52:57;;;;;;;3.47;1.60;;;;;;;10.77;53.94;99368.09;5001294;28;20422;-75
2022/05/24 01:55:29;;;;;;;4.50;1.85;;;;;;;10.72;53.98;99363.00;5002697;28;20050;-74
2022/05/24 01:57:59;;;;;;;2.00;1.30;;;;;;;10.90;53.38;99353.03;5002787;28;20041;-75
2022/05/24 02:00:25;;;;;;;2.55;1.40;;;;;;;10.78;53.57;99362.84;5002981;28;20030;-74
2022/05/24 02:02:51;;;;;;;2.55;1.65;;;;;;;10.74;53.83;99350.00;5002722;28;20093;-75
2022/05/24 02:05:38;;;;;;;2.65;1.52;;;;;;;10.86;53.52;99346.22;5002880;28;20034;-75
2022/05/24 02:08:07;;;;;;;1.80;0.90;;;;;;;11.14;52.66;99322.94;5002667;28;20156;-74
2022/05/24 02:10:39;;;;;;;2.88;1.15;;;;;;;10.95;53.11;99314.81;5002328;28;20065;-74
2022/05/24 02:13:04;;;;;;;4.18;1.30;;;;;;;11.05;52.83;99325.81;5002322;28;20102;-75
2022/05/24 02:15:33;;;;;;;2.22;1.20;;;;;;;11.06;53.10;99327.50;5002484;28;20191;-74
2022/05/24 02:18:14;;;;;;;3.83;1.50;;;;;;;10.89;53.62;99304.59;5002606;28;20034;-76
2022/05/24 02:20:43;;;;;;;2.47;1.60;;;;;;;10.69;54.34;99302.56;5011125;28;20029;-75
2022/05/24 02:23:11;;;;;;;3.42;1.40;;;;;;;10.97;53.75;99304.38;5085057;28;20043;-75
2022/05/24 02:25:44;;;;;;;2.38;1.60;;;;;;;10.86;54.20;99302.09;5084614;28;20055;-75
2022/05/24 02:28:13;;;;;;;4.05;1.08;;;;;;;11.00;54.05;99302.56;5084254;28;20042;-72
2022/05/24 02:30:46;;;;;;;4.68;2.00;;;;;;;10.71;54.85;99292.97;5084373;28;20024;-74
2022/05/24 02:33:11;;;;;;;1.63;0.73;;;;;;;10.97;54.52;99291.41;5084576;28;20027;-75
2022/05/24 02:35:37;;;;;;;4.65;1.92;;;;;;;10.90;54.50;99291.56;5084088;28;20036;-75
2022/05/24 02:38:02;;;;;;;5.32;2.00;;;;;;;10.79;55.22;99275.44;5084343;28;20268;-74
2022/05/24 02:43:12;;;;;;;6.05;1.35;;;;;;;10.91;55.29;99282.88;5083845;28;20093;-75
2022/05/24 02:45:37;;;;;;;3.05;1.85;;;;;;;10.80;55.47;99273.72;5084129;28;20260;-75
2022/05/24 02:48:03;;;;;;;2.38;1.73;;;;;;;10.95;55.34;99278.47;5083840;28;20024;-74
2022/05/24 02:50:28;;;;;;;3.78;2.10;;;;;;;10.88;55.66;99259.59;5083829;28;20028;-75
2022/05/24 02:52:54;;;;;;;3.03;1.95;;;;;;;10.83;56.02;99273.63;5083922;28;20020;-75
2022/05/24 02:55:20;;;;;;;8.50;1.83;;;;;;;10.83;56.13;99266.66;5065880;28;20024;-75
2022/05/24 02:57:46;;;;;;;3.85;2.13;;;;;;;10.93;56.06;99266.44;5065534;28;20028;-76
2022/05/24 03:00:15;;;;;;;3.83;2.03;;;;;;;11.06;55.66;99270.38;5083785;28;20115;-75
2022/05/24 03:02:41;;;;;;;2.58;1.48;;;;;;;11.38;54.68;99252.97;5083865;28;20020;-74
2022/05/24 03:05:10;;;;;;;2.08;1.52;;;;;;;11.20;55.50;99256.97;5083234;28;20032;-75
2022/05/24 03:10:21;;;;;;;2.15;1.35;;;;;;;11.15;56.12;99253.66;5083919;28;20028;-74
2022/05/24 03:15:30;;;;;;;2.50;1.77;;;;;;;11.47;55.37;99249.22;5084141;28;20031;-76
2022/05/24 03:17:55;;;;;;;4.88;1.77;;;;;;;11.40;56.00;99230.41;5083767;28;20021;-74
2022/05/24 03:20:21;;;;;;;3.35;1.98;;;;;;;11.60;54.83;99243.66;5083695;28;20077;-75
2022/05/24 03:22:47;;;;;;;2.60;2.10;;;;;;;11.62;55.28;99242.72;5083899;28;20028;-75
2022/05/24 03:25:13;;;;;;;3.00;1.90;;;;;;;11.72;54.67;99232.88;5083667;28;20082;-75
2022/05/24 03:27:39;;;;;;;3.55;2.35;;;;;;;11.63;54.83;99228.81;5083113;28;20028;-74
2022/05/24 03:30:05;;;;;;;3.78;2.40;;;;;;;11.61;55.40;99235.78;5083311;28;20059;-76
2022/05/24 03:32:33;;;;;;;4.00;2.35;;;;;;;11.82;54.83;99230.81;5083687;28;20024;-75
2022/05/24 03:35:02;;;;;;;2.70;1.83;;;;;;;11.74;55.21;99212.03;5083569;28;20021;-75
2022/05/24 03:37:28;;;;;;;2.95;2.03;;;;;;;11.74;54.97;99227.63;5083581;28;20040;-74
2022/05/24 03:39:53;;;;;;;3.53;2.13;;;;;;;11.42;56.06;99225.16;5083312;28;20108;-74
2022/05/24 03:42:19;;;;;;;2.20;1.52;;;;;;;11.52;56.14;99225.69;5083281;28;20107;-73
2022/05/24 03:44:45;;;;;;;4.00;2.30;;;;;;;11.57;55.58;99221.22;5083573;28;20052;-74
2022/05/24 03:47:11;;;;;;;3.22;1.90;;;;;;;11.50;55.81;99210.16;5083338;28;20029;-77
2022/05/24 03:49:36;;;;;;;4.70;2.05;;;;;;;11.67;55.91;99218.31;5083194;28;20028;-76
2022/05/24 03:52:01;;;;;;;5.40;2.45;;;;;;;11.47;56.10;99202.44;5083392;28;20016;-72
2022/05/24 03:54:27;;;;;;;4.85;1.92;;;;;;;11.67;55.83;99215.72;5083370;28;20099;-76
2022/05/24 03:59:37;;;;;;;4.68;1.98;;;;;;;11.53;56.70;99199.66;5083206;28;20086;-75
2022/05/24 04:02:02;;;;;;;4.63;1.98;;;;;;;11.71;56.22;99204.34;5083447;28;20020;-77
2022/05/24 04:04:27;;;;;;;4.00;1.67;;;;;;;11.63;56.11;99187.22;5083283;28;20024;-72
2022/05/24 04:06:53;;;;;;;3.30;2.20;;;;;;;11.59;56.53;99206.44;5083085;28;20024;-71
2022/05/24 04:09:18;;;;;;;4.85;2.20;;;;;;;11.53;56.83;99180.63;5082911;28;20027;-75
2022/05/24 04:11:43;;;;;;;5.82;3.00;;;;;;;11.63;56.42;99184.63;5082762;28;20024;-71
2022/05/24 04:14:09;;;;;;;7.55;2.58;;;;;;;11.62;56.57;99164.72;5083118;28;20020;-75
2022/05/24 04:16:34;;;;;;;2.80;1.85;;;;;;;11.62;56.69;99172.53;5082166;28;20024;-76
2022/05/24 04:19:00;;;;;;;4.60;2.10;;;;;;;11.63;56.59;99166.41;5082933;28;20020;-76
2022/05/24 04:21:25;;;;;;;6.20;1.92;;;;;;;11.70;56.51;99161.88;5083083;28;20399;-77
2022/05/24 04:23:51;;;;;;;2.47;1.83;;;;;;;11.86;56.17;99172.63;5065001;28;20029;-75
2022/05/24 04:26:17;;;;;;;4.55;2.50;;;;;;;11.97;56.00;99154.03;5083025;28;20036;-77
2022/05/24 04:28:42;;;;;;;6.18;2.78;;;;;;;11.89;56.19;99164.72;5082498;28;20016;-72
2022/05/24 04:31:08;;;;;;;4.43;2.80;;;;;;;12.36;54.71;99151.88;5083145;28;20016;-75
2022/05/24 04:33:33;;;;;;;4.72;2.90;;;;;;;12.07;55.91;99149.38;5082937;28;20033;-74
2022/05/24 04:35:58;;;;;;;4.07;2.45;;;;;;;12.21;55.34;99161.06;5083009;28;20084;-76
2022/05/24 04:38:24;;;;;;;4.22;2.60;;;;;;;12.07;55.81;99138.97;5081965;28;20329;-77
2022/05/24 04:43:34;;;;;;;5.85;3.03;;;;;;;12.20;55.65;99144.63;5082688;28;20031;-77
2022/05/24 04:45:59;;;;;;;9.20;2.88;;;;;;;12.33;55.10;99133.78;5082997;28;20020;-75
2022/05/24 04:48:26;;;;;;;4.55;2.30;;;;;;;12.53;54.50;99125.22;5082864;28;20365;-77
2022/05/24 04:50:57;;;;;;;6.05;2.97;;;;;;;12.43;54.86;99140.31;5082730;28;20031;-77
2022/05/24 04:53:25;;;;;;;4.40;2.03;;;;;;;12.48;54.82;99129.75;5082815;28;20029;-76
2022/05/24 04:55:50;;;;;;;3.45;2.15;;;;;;;12.53;54.27;99127.81;5064623;28;20021;-78
2022/05/24 04:58:17;;;;;;;2.70;1.58;;;;;;;12.53;54.52;99104.41;5082697;28;20053;-74
2022/05/24 05:00:43;;;;;;;4.65;2.78;;;;;;;12.53;54.31;99130.44;5083050;28;20017;-77
2022/05/24 05:03:10;;;;;;;5.55;3.35;;;;;;;12.43;55.13;99119.50;5083423;28;20034;-78
2022/05/24 05:05:36;;;;;;;4.85;2.90;;;;;;;12.82;54.25;99115.47;5083008;28;20020;-77
2022/05/24 05:08:02;;;;;;;5.57;3.10;;;;;;;13.18;52.99;99111.44;5082517;28;20025;-76
2022/05/24 05:10:27;;;;;;;3.03;1.42;;;;;;;13.39;52.86;99094.09;5082806;28;20058;-74
2022/05/24 05:12:52;;;;;;;9.32;2.90;;;;;;;13.65;51.62;99098.31;5082144;28;20082;-76
2022/05/24 05:15:18;;;;;;;4.95;2.17;;;;;;;13.96;50.69;99097.84;5082530;28;20048;-76
2022/05/24 05:17:43;;;;;;;4.25;1.65;;;;;;;14.41;49.44;99144.63;5082316;28;20044;-72
2022/05/24 05:20:09;;;;;;;3.90;2.03;;;;;;;14.11;49.96;99092.88;5082291;28;20016;-73
2022/05/24 05:22:34;;;;;;;5.30;2.60;;;;;;;14.35;49.35;99097.91;5082239;28;20044;-78
2022/05/24 05:25:00;;;;;;;8.02;2.35;;;;;;;14.47;50.01;99091.28;5082277;28;20044;-74
2022/05/24 05:27:25;;;;;;;8.90;2.55;;;;;;;14.98;48.04;99093.31;5083748;28;20365;-75
2022/05/24 05:32:35;;;;;;;5.00;2.60;;;;;;;15.12;47.92;99071.75;5085420;28;20023;-76
2022/05/24 05:35:01;;;;;;;5.25;2.97;;;;;;;15.15;47.79;99066.34;5085589;28;20048;-74
2022/05/24 05:37:29;;;;;;;2.55;1.67;;;;;;;15.54;46.85;99079.28;5085538;28;20100;-77
2022/05/24 05:39:54;;;;;;;4.22;2.00;;;;;;;15.85;46.07;99081.19;5085484;28;20020;-73
2022/05/24 05:42:20;;;;;;;5.90;2.60;;;;;;;16.05;45.67;99094.19;5085516;28;20070;-75
2022/05/24 05:44:49;;;;;;;3.63;1.77;;;;;;;16.16;44.78;99073.53;5085609;28;20071;-72
2022/05/24 05:47:16;;;;;;;3.50;2.00;;;;;;;16.13;44.51;99063.22;5085606;28;20027;-77
2022/05/24 05:49:41;;;;;;;4.38;2.60;;;;;;;16.05;45.11;99076.72;5067484;28;20025;-74
2022/05/24 05:52:07;;;;;;;6.50;2.50;;;;;;;16.12;44.93;99065.94;5085354;28;20034;-77
2022/05/24 05:54:33;;;;;;;3.92;2.17;;;;;;;16.28;45.07;99043.22;5085117;28;20072;-73
2022/05/24 05:56:59;;;;;;;5.50;2.30;;;;;;;16.46;44.96;99035.28;5084716;28;20103;-74
2022/05/24 05:59:24;;;;;;;3.35;2.13;;;;;;;16.56;44.80;99054.81;5084921;28;20384;-76
2022/05/24 06:01:50;;;;;;;3.40;1.75;;;;;;;16.99;42.57;99034.97;5084843;28;20094;-73
2022/05/24 06:04:16;;;;;;;2.78;1.50;;;;;;;16.83;42.77;99054.19;5084677;28;20208;-74
2022/05/24 06:06:45;;;;;;;5.07;2.03;;;;;;;16.62;43.01;99043.13;5084581;28;20020;-74
2022/05/24 06:09:11;;;;;;;7.03;1.95;;;;;;;16.35;43.63;99044.59;5084635;28;20028;-73
2022/05/24 06:11:36;;;;;;;6.28;2.85;;;;;;;16.25;43.85;99055.63;5084674;28;20039;-76
2022/05/24 06:14:02;;;;;;;2.70;1.80;;;;;;;16.14;43.57;99053.56;5084762;28;20024;-73
2022/05/24 06:16:27;;;;;;;7.43;1.90;;;;;;;15.93;44.25;99038.06;5084597;28;20112;-73
2022/05/24 06:18:53;;;;;;;1.58;1.10;;;;;;;16.02;43.97;99042.00;5084555;28;20268;-70
2022/05/24 06:21:18;;;;;;;3.33;2.03;;;;;;;15.65;44.88;99036.88;5084324;28;20059;-72
2022/05/24 06:23:43;;;;;;;3.60;1.80;;;;;;;15.61;45.38;99051.88;5084344;28;20187;-73
2022/05/24 06:26:09;;;;;;;6.32;2.00;;;;;;;15.46;45.39;99030.00;5084425;28;20429;-75
2022/05/24 06:28:35;;;;;;;3.85;2.05;;;;;;;15.50;45.44;99028.91;5084214;28;20051;-75
2022/05/24 06:31:00;;;;;;;3.95;2.00;;;;;;;15.26;46.51;99047.53;5084191;28;20048;-73
2022/05/24 06:33:27;;;;;;;4.28;2.20;;;;;;;15.45;45.56;99015.22;5083996;28;20096;-71
2022/05/24 06:35:52;;;;;;;4.72;2.30;;;;;;;15.36;46.30;99027.84;5084100;28;20032;-75
2022/05/24 06:38:18;;;;;;;4.43;2.33;;;;;;;15.47;45.56;99013.38;5065155;28;20023;-74
2022/05/24 06:40:45;;;;;;;7.28;2.70;;;;;;;15.59;45.53;99023.19;5083803;28;20237;-75
2022/05/24 06:43:10;;;;;;;2.90;1.83;;;;;;;15.99;43.99;99014.19;5083950;28;20051;-75
2022/05/24 06:45:36;;;;;;;3.58;2.33;;;;;;;15.77;44.34;99025.78;5084109;28;20471;-74
2022/05/24 06:48:01;;;;;;;5.50;2.15;;;;;;;15.73;44.75;99021.66;5083636;28;20082;-74
2022/05/24 06:50:27;;;;;;;4.80;2.65;;;;;;;15.32;46.06;99002.75;5083604;28;20111;-74
2022/05/24 06:52:54;;;;;;;2.30;1.80;;;;;;;15.37;46.28;99005.16;5083651;28;20050;-75
2022/05/24 06:55:21;;;;;;;3.15;2.22;;;;;;;15.54;45.85;98995.59;5083596;28;20054;-72
2022/05/24 06:57:46;;;;;;;6.20;2.20;;;;;;;15.85;45.21;99000.06;5083578;28;20088;-73
2022/05/24 07:03:08;;;;;;;4.57;2.10;;;;;;;15.76;45.54;98992.72;5083657;28;20119;-74
2022/05/24 07:05:34;;;;;;;1.73;1.25;;;;;;;15.88;45.02;98977.28;5083556;28;20020;-73
2022/05/24 07:08:01;;;;;;;2.40;1.90;;;;;;;15.86;45.11;98982.59;5083402;28;20016;-73
2022/05/24 07:10:27;;;;;;;3.83;1.70;;;;;;;15.87;45.22;98976.44;5083628;28;20047;-75
2022/05/24 07:13:08;;;;;;;3.67;1.60;;;;;;;15.84;45.39;98969.59;5083448;28;20064;-73
2022/05/24 07:15:34;;;;;;;3.90;2.53;;;;;;;15.76;45.72;98968.31;5083642;28;20024;-75
2022/05/24 07:18:00;;;;;;;3.38;1.95;;;;;;;15.88;45.51;98975.50;5083445;28;20025;-74
2022/05/24 07:20:27;;;;;;;4.15;2.42;;;;;;;15.72;46.02;98975.47;5083697;28;20036;-76
2022/05/24 07:22:55;;;;;;;4.68;2.00;;;;;;;15.89;45.42;98992.06;5083414;28;20545;-74
2022/05/24 07:25:21;;;;;;;4.25;2.63;;;;;;;15.58;46.49;98970.97;5065462;28;20551;-74
2022/05/24 07:27:47;;;;;;;3.50;2.42;;;;;;;15.71;46.30;98963.31;5085010;28;20107;-77
2022/05/24 07:30:12;;;;;;;6.75;2.85;;;;;;;15.59;46.65;98951.75;5083341;28;20782;-76
2022/05/24 07:32:38;;;;;;;4.45;2.63;;;;;;;15.77;46.30;98967.41;5083463;28;20016;-76
2022/05/24 07:35:05;;;;;;;5.43;1.95;;;;;;;15.79;46.08;98944.59;5083560;28;20024;-77
2022/05/24 07:37:31;;;;;;;4.43;2.55;;;;;;;15.65;46.76;98959.28;5083342;28;20024;-76
2022/05/24 07:48:09;;;;;;;4.18;2.17;;;;;;;15.95;46.13;98978.63;5083037;28;20035;-72
2022/05/24 07:50:35;;;;;;;3.97;1.67;;;;;;;15.92;46.40;98971.81;5082935;28;20020;-72
2022/05/24 07:53:00;;;;;;;5.30;2.47;;;;;;;15.85;46.51;98973.91;5083038;28;20028;-76
2022/05/24 07:55:26;;;;;;;3.72;2.47;;;;;;;15.71;47.04;98986.88;5082967;28;20076;-76
2022/05/24 07:57:51;;;;;;;5.93;2.08;;;;;;;15.77;47.19;98983.91;5083015;28;20023;-75
2022/05/24 08:00:17;;;;;;;2.47;1.80;;;;;;;15.93;46.89;98998.78;5083126;28;20536;-76
2022/05/24 08:02:42;;;;;;;3.03;2.17;;;;;;;15.73;47.36;98982.41;5082872;28;20021;-76
2022/05/24 08:05:09;;;;;;;4.25;1.65;;;;;;;16.01;46.63;98967.84;5083001;28;20024;-74
2022/05/24 08:07:35;;;;;;;5.40;1.98;;;;;;;15.92;47.18;98992.75;5082837;28;20025;-74
2022/05/24 08:10:00;;;;;;;2.50;1.98;;;;;;;16.10;46.71;98996.16;5082786;28;20056;-74
2022/05/24 08:12:25;;;;;;;2.85;1.48;;;;;;;16.19;46.43;98991.34;5082759;28;20147;-72
2022/05/24 08:14:52;;;;;;;5.22;2.40;;;;;;;15.97;47.41;98992.50;5082820;28;20491;-75
2022/05/24 08:17:17;;;;;;;3.00;2.03;;;;;;;15.97;48.38;98982.03;5082760;28;20522;-74
2022/05/24 08:19:42;;;;;;;3.53;2.13;;;;;;;15.59;50.06;98997.03;5082749;28;20020;-76
2022/05/24 08:22:08;;;;;;;6.85;2.60;;;;;;;15.26;52.26;99002.22;5082604;28;20027;-76
2022/05/24 08:24:34;;;;;;;2.92;2.03;;;;;;;14.85;54.38;98997.25;5082639;28;20021;-76
2022/05/24 08:26:59;;;;;;;4.22;2.30;;;;;;;14.53;56.81;99010.06;5082465;28;20028;-71
2022/05/24 08:29:24;;;;;;;6.60;2.72;;;;;;;14.13;58.96;99010.16;5082352;28;20488;-70
2022/05/24 08:31:50;;;;;;;8.95;3.33;;;;;;;14.01;60.37;99027.19;5082664;28;20238;-69
2022/05/24 08:34:15;;;;;;;3.60;2.15;;;;;;;13.79;61.15;99012.50;5082761;28;20028;-69
2022/05/24 08:36:41;;;;;;;3.45;2.13;;;;;;;13.73;62.70;99018.00;5082461;28;20031;-70
2022/05/24 08:39:06;;;;;;;4.05;3.10;;;;;;;13.33;64.52;99031.81;5082558;28;20021;-69
2022/05/24 08:41:48;;;;;;;6.57;4.07;;;;;;;13.05;65.90;99022.50;5082109;28;20119;-70
2022/05/24 08:49:56;;;;;;;5.90;3.78;;;;;;;12.37;71.09;99036.44;5082529;28;20038;-69
2022/05/24 08:52:23;;;;;;;7.25;3.08;;;;;;;12.27;72.55;99030.75;5082541;28;20042;-68
2022/05/24 08:54:50;;;;;;;9.98;4.55;;;;;;;12.20;73.18;99037.09;5082240;28;20016;-68
2022/05/24 08:57:23;;;;;;;5.93;4.03;;;;;;;12.08;74.30;99035.78;5081933;28;20124;-69
2022/05/24 08:59:56;;;;;;;5.35;3.80;;;;;;;12.10;75.17;99045.25;5082104;28;20020;-71
2022/05/24 09:02:22;;;;;;;8.02;5.03;;;;;;;12.02;75.87;99042.03;5084194;28;20321;-70
2022/05/24 09:04:49;;;;;;;9.30;5.10;;;;;;;11.86;77.12;99047.78;5086115;28;20687;-70
2022/05/24 09:07:32;;;;;;;7.07;3.53;;;;;;;11.83;78.19;99037.50;5086038;28;20388;-73
2022/05/24 09:10:06;;;;;;;8.98;4.28;;;;;;;11.76;79.03;99033.41;5085964;28;20024;-75
2022/05/24 09:12:41;;;;;;;8.75;5.10;;;;;;;11.73;79.74;99042.19;5085795;28;20027;-76
2022/05/24 09:15:29;;;;;;;8.77;5.13;;;;;;;11.87;79.92;99054.69;5085969;28;20083;-78
2022/05/24 09:18:23;;;;;;;8.85;4.03;;;;;;;12.00;80.46;99060.28;5059396;28;20028;-78
2022/05/24 09:20:48;;;;;;;14.68;6.57;;;;;;;11.86;81.14;99050.41;5085990;28;20036;-80
2022/05/24 09:23:32;;;;;;;8.43;5.45;;;;;;;11.93;82.03;99047.56;5085948;28;20053;-79
2022/05/24 09:26:08;;;;;;;7.47;4.50;;;;;;;11.96;81.65;99050.91;5085888;28;20025;-80
2022/05/24 09:28:51;;;;;;;13.75;6.30;;;;;;;11.92;82.89;99051.09;5085512;28;20056;-81
2022/05/24 09:31:35;;;;;;;;;;;;;;;11.99;83.33;99044.75;5086331;28;20043;-77
2022/05/24 09:34:04;;;;;;;8.63;4.38;;;;;;;11.87;83.50;99030.41;5085729;28;19962;-77
2022/05/24 09:36:51;;;;;;;10.15;5.50;;;;;;;11.94;83.75;99037.13;5085423;28;20568;-79
2022/05/24 09:39:35;;;;;;;10.85;5.55;;;;;;;11.95;84.56;99030.16;5085656;28;20024;-79
2022/05/24 09:42:05;;;;;;;9.38;5.72;;;;;;;11.82;85.24;99019.34;5085356;28;20048;-79
2022/05/24 09:44:47;;;;;;;11.55;6.95;;;;;;;11.93;85.16;99032.81;5085736;28;20058;-82
2022/05/24 09:47:42;;;;;;;7.32;5.05;;;;;;;11.98;85.38;99024.84;5085558;28;20417;-79
2022/05/24 09:50:30;;;;;;;13.02;7.25;;;;;;;11.87;86.10;99014.81;5085513;28;20131;-80
2022/05/24 09:53:13;;;;;;;9.13;6.88;;;;;;;12.00;86.08;99030.81;5085514;28;20523;-78
2022/05/24 09:55:43;;;;;;;12.20;5.93;;;;;;;12.02;85.97;99031.63;5085178;28;20618;-78
2022/05/24 09:58:26;;;;;;;14.00;4.47;;;;;;;12.01;86.75;99019.53;5084881;28;20047;-77
2022/05/24 10:00:58;;;;;;;9.05;5.55;;;;;;;11.89;86.82;99006.06;5085133;28;20452;-77
2022/05/24 10:03:51;;;;;;;9.10;7.15;;;;;;;11.96;87.18;99029.25;5085000;28;20060;-78
2022/05/24 10:06:22;;;;;;;10.07;5.35;;;;;;;12.14;86.41;99026.00;5080924;28;20085;-78
2022/05/24 10:08:52;;;;;;;11.90;6.68;;;;;;;12.01;87.57;99029.94;5085046;28;20074;-77
2022/05/24 10:11:23;;;;;;;14.70;8.48;;;;;;;11.97;87.87;99025.75;5066780;28;20059;-77
2022/05/24 10:13:58;;;;;;;7.30;4.43;;;;;;;12.17;86.93;99035.47;5083700;28;20052;-77
2022/05/24 10:16:35;;;;;;;8.98;5.80;;;;;;;12.11;87.33;99031.31;5084801;28;20733;-77
2022/05/24 10:19:25;;;;;;;10.15;6.28;;;;;;;12.04;87.84;99035.03;5084855;28;20035;-76
2022/05/24 10:22:02;;;;;;;10.00;6.05;;;;;;;12.13;87.93;99034.72;5066794;28;20097;-76
2022/05/24 10:24:46;;;;;;;11.10;6.32;;;;;;;12.09;89.02;99043.53;5066808;28;20016;-78
2022/05/24 10:27:20;;;;;;;9.82;5.35;;;;;;;12.22;87.72;99037.91;5084567;28;20645;-77
2022/05/24 10:30:01;;;;;;;11.20;7.70;;;;;;;11.96;89.30;99034.47;5084651;28;20037;-77
2022/05/24 10:39:20;;;;;;;8.38;6.07;;;;;;;12.18;89.04;99041.50;5084348;28;20420;-76
2022/05/24 10:42:03;;;;;;;11.25;6.35;;;;;;;12.14;89.06;99033.81;5075575;28;20079;-77
2022/05/24 10:44:37;;;;;;;8.77;5.32;;;;;;;12.17;89.17;99048.47;5084066;28;20032;-75
2022/05/24 10:47:18;;;;;;;12.27;8.43;;;;;;;12.07;89.56;99052.28;5084034;28;20509;-77
2022/05/24 10:49:48;;;;;;;14.45;7.00;;;;;;;12.04;90.40;99045.44;5084134;28;20024;-76
2022/05/24 10:52:28;;;;;;;5.10;3.08;;;;;;;12.11;90.13;99056.47;5084386;28;20093;-76
2022/05/24 10:55:01;;;;;;;7.95;4.40;;;;;;;12.21;88.87;99026.63;5084143;28;20093;-76
2022/05/24 10:57:35;;;;;;;8.60;5.43;;;;;;;12.19;89.77;99061.41;5083541;28;20025;-74
2022/05/24 11:00:07;;;;;;;8.27;6.07;;;;;;;12.04;90.90;99058.44;5083672;28;20104;-75
2022/05/24 11:02:50;;;;;;;10.65;6.88;;;;;;;11.96;92.20;99063.06;5065641;28;20066;-74
2022/05/24 11:05:27;;;;;;;13.45;8.55;;;;;;;12.12;91.70;99072.03;5083825;28;20020;-74
2022/05/24 11:08:05;;;;;;;7.55;5.15;;;;;;;12.22;90.57;99069.13;5065310;28;20035;-75
2022/05/24 11:10:39;;;;;;;13.73;8.57;;;;;;;12.01;92.31;99074.16;5065408;28;20089;-74
2022/05/24 11:13:11;;;;;;;11.05;7.78;;;;;;;12.11;91.40;99078.16;5065075;28;20450;-74
2022/05/24 11:15:39;;;;;;;15.70;7.97;;;;;;;12.17;91.02;99078.84;5083548;28;20028;-74
2022/05/24 11:18:14;;;;;;;6.85;4.15;;;;;;;12.30;90.80;99077.47;5083254;28;20033;-74
2022/05/24 11:20:51;;;;;;;9.75;6.70;;;;;;;12.22;90.39;99075.16;5083609;28;20065;-74
2022/05/24 11:23:41;;;;;;;9.73;5.95;;;;;;;12.11;92.05;99083.34;5083527;28;20027;-75
2022/05/24 11:26:28;;;;;;;16.13;10.10;;;;;;;12.05;93.08;99086.13;5083294;28;20080;-74
2022/05/24 11:28:58;;;;;;;13.00;7.78;;;;;;;12.04;92.87;99081.84;5083256;28;20051;-74
2022/05/24 11:31:38;;;;;;;17.30;9.50;;;;;;;12.10;92.73;99086.88;5083628;28;20111;-74
2022/05/24 11:34:24;;;;;;;12.98;7.93;;;;;;;12.08;93.75;99078.25;5083570;28;20058;-74
2022/05/24 11:37:04;;;;;;;20.50;12.85;;;;;;;12.06;94.77;99080.03;5083399;28;20040;-73
2022/05/24 11:39:34;;;;;;;17.00;11.45;;;;;;;12.01;94.77;99082.78;5065375;28;20084;-73
2022/05/24 11:42:21;;;;;;;18.17;8.23;;;;;;;12.09;94.68;99082.53;5082903;28;20119;-73
2022/05/24 11:44:47;;;;;;;10.27;7.30;;;;;;;12.24;93.10;99082.91;5083252;28;20026;-72
2022/05/24 11:47:35;;;;;;;17.35;11.48;;;;;;;12.08;95.16;99091.25;5064962;28;20027;-73
2022/05/24 11:50:05;;;;;;;14.88;10.10;;;;;;;12.10;94.42;99083.41;5083095;28;20025;-72
2022/05/24 11:52:59;;;;;;;14.15;6.72;;;;;;;12.19;94.39;99084.84;5083020;28;20028;-73
2022/05/24 11:55:40;;;;;;;15.25;9.45;;;;;;;12.19;94.13;99096.06;5064753;28;20551;-71
2022/05/24 11:58:20;;;;;;;10.32;5.00;;;;;;;12.16;94.60;99087.56;5082572;28;20037;-73
2022/05/24 12:00:59;;;;;;;11.48;8.40;;;;;;;12.17;95.06;99102.25;5083020;28;20069;-73
2022/05/24 12:09:12;;;;;;;0.75;0.75;;;;;;;12.12;95.30;99105.84;5082764;28;20400;-73
2022/05/24 12:11:38;;;;;;;0.20;0.20;;;;;;;12.14;95.54;99100.63;5064876;28;20673;-72
2022/05/24 12:14:24;;;;;;;0.20;0.20;;;;;;;12.10;96.55;99109.41;5064313;28;20112;-72
2022/05/24 12:16:55;;;;;;;0.20;0.20;;;;;;;12.28;95.40;99105.31;5050230;28;20033;-72
2022/05/24 12:19:40;;;;;;;0.20;0.20;;;;;;;12.21;95.96;99106.44;5082435;28;20016;-72
2022/05/24 12:22:21;;;;;;;0.20;0.20;;;;;;;12.25;95.68;99095.84;5082597;28;20063;-72
2022/05/24 12:24:54;;;;;;;0.20;0.20;;;;;;;12.25;95.54;99105.44;5082738;28;20108;-71
2022/05/24 12:27:27;;;;;;;0.20;0.20;;;;;;;12.33;95.30;99102.53;5082579;28;20187;-72
2022/05/24 12:29:58;;;;;;;0.30;0.30;;;;;;;12.28;95.64;99094.91;5082879;28;20036;-73
2022/05/24 12:32:25;;;;;;;0.20;0.20;;;;;;;12.20;96.38;99099.53;5082943;28;20427;-72
2022/05/24 12:34:51;;;;;;;0.20;0.20;;;;;;;12.26;96.31;99105.38;5082968;28;20032;-72
2022/05/24 12:37:32;;;;;;;0.20;0.20;;;;;;;12.26;96.22;99109.72;5066199;28;20488;-71